Time;durP1;ratioP1;P1;durP2;ratioP2;P2;SDS_P1;SDS_P2;PMS_P1;PMS_P2;Temp;Humidity;BMP_temperature;BMP_pressure;BME280_temperature;BME280_humidity;BME280_pressure;Samples;Min_cycle;Max_cycle;Signal;HPM_P1;HPM_P2
2022/01/07 00:02:03;;;;;;;22.38;8.20;;;2.50;99.90;;;;;;5091774;28;20028;-72
2022/01/07 00:04:31;;;;;;;26.98;8.68;;;2.50;99.90;;;;;;5093008;28;20024;-72
2022/01/07 00:06:56;;;;;;;18.83;7.38;;;2.60;99.90;;;;;;5093191;28;20016;-72
2022/01/07 00:09:22;;;;;;;20.05;7.10;;;2.60;99.90;;;;;;5093381;28;20036;-72
2022/01/07 00:11:47;;;;;;;17.90;6.97;;;2.50;99.90;;;;;;5097148;28;20024;-72
2022/01/07 00:14:13;;;;;;;26.73;7.47;;;2.60;99.90;;;;;;5096783;28;20024;-72
2022/01/07 00:16:38;;;;;;;22.70;6.30;;;2.60;99.90;;;;;;5097027;28;20073;-72
2022/01/07 00:19:04;;;;;;;18.60;7.10;;;2.60;99.90;;;;;;5096980;28;20488;-72
2022/01/07 00:21:30;;;;;;;20.15;7.30;;;2.60;99.90;;;;;;5078198;28;20032;-72
2022/01/07 00:23:56;;;;;;;18.38;6.93;;;2.60;99.90;;;;;;5096898;28;20032;-72
2022/01/07 00:26:21;;;;;;;21.10;6.75;;;2.60;99.90;;;;;;5095150;28;20028;-73
2022/01/07 00:28:47;;;;;;;17.52;6.63;;;2.60;99.90;;;;;;5095657;28;20024;-72
2022/01/07 00:31:13;;;;;;;22.65;6.45;;;2.60;99.90;;;;;;5095269;28;20027;-72
2022/01/07 00:33:38;;;;;;;29.23;7.72;;;2.70;99.90;;;;;;5095549;28;20031;-72
2022/01/07 00:36:05;;;;;;;24.83;6.55;;;2.60;99.90;;;;;;5078008;28;20028;-72
2022/01/07 00:38:32;;;;;;;15.32;6.72;;;2.70;99.90;;;;;;5077941;28;20024;-72
2022/01/07 00:40:58;;;;;;;22.13;6.85;;;2.70;99.90;;;;;;5095440;28;20016;-72
2022/01/07 00:43:24;;;;;;;23.35;7.22;;;2.60;99.90;;;;;;5077898;28;20171;-73
2022/01/07 00:45:50;;;;;;;22.20;6.50;;;2.60;99.90;;;;;;5094596;28;20061;-72
2022/01/07 00:48:15;;;;;;;18.33;6.57;;;2.70;99.90;;;;;;5094623;28;20021;-72
2022/01/07 00:50:41;;;;;;;27.48;6.82;;;2.70;99.90;;;;;;5096108;28;20503;-72
2022/01/07 00:53:07;;;;;;;14.20;5.30;;;2.70;99.90;;;;;;5094506;28;20016;-72
2022/01/07 00:55:33;;;;;;;13.35;5.38;;;2.70;99.90;;;;;;5094840;28;20419;-72
2022/01/07 00:57:58;;;;;;;21.05;6.32;;;2.80;99.90;;;;;;5094793;28;20091;-72
2022/01/07 01:00:26;;;;;;;20.13;5.53;;;2.80;99.90;;;;;;5094536;28;20503;-72
2022/01/07 01:02:55;;;;;;;19.95;6.13;;;2.80;99.90;;;;;;5095908;28;20028;-72
2022/01/07 01:05:20;;;;;;;17.10;5.75;;;2.80;99.90;;;;;;5094740;28;20028;-73
2022/01/07 01:07:46;;;;;;;16.80;6.50;;;2.80;99.90;;;;;;5077473;28;20119;-73
2022/01/07 01:10:13;;;;;;;17.02;5.57;;;2.80;99.90;;;;;;5096073;28;20020;-73
2022/01/07 01:12:41;;;;;;;21.85;5.68;;;2.80;99.90;;;;;;5077438;28;20039;-72
2022/01/07 01:15:09;;;;;;;15.45;4.93;;;2.90;99.90;;;;;;5094753;28;20072;-72
2022/01/07 01:17:35;;;;;;;24.23;6.53;;;2.90;99.90;;;;;;5094378;28;20032;-73
2022/01/07 01:20:03;;;;;;;16.13;6.65;;;2.90;99.90;;;;;;5077119;28;20152;-72
2022/01/07 01:22:28;;;;;;;17.48;5.40;;;3.00;99.90;;;;;;5076955;28;20032;-72
2022/01/07 01:24:54;;;;;;;15.40;5.18;;;3.00;99.90;;;;;;5095677;28;20031;-72
2022/01/07 01:27:19;;;;;;;14.93;6.40;;;3.00;99.90;;;;;;5076806;28;20516;-72
2022/01/07 01:29:45;;;;;;;19.65;5.95;;;2.90;99.90;;;;;;5094159;28;20020;-72
2022/01/07 01:32:10;;;;;;;11.13;5.28;;;3.00;99.90;;;;;;5077400;28;20111;-73
2022/01/07 01:34:36;;;;;;;16.48;5.55;;;3.00;99.90;;;;;;5094335;28;20027;-71
2022/01/07 01:37:02;;;;;;;14.80;5.78;;;3.10;99.90;;;;;;5094020;28;20031;-72
2022/01/07 01:39:27;;;;;;;12.77;5.25;;;3.10;99.90;;;;;;5093603;28;20024;-72
2022/01/07 01:41:53;;;;;;;17.58;5.50;;;3.10;99.90;;;;;;5094244;28;20024;-72
2022/01/07 01:44:19;;;;;;;14.05;5.35;;;3.10;99.90;;;;;;5095374;28;20107;-72
2022/01/07 01:46:44;;;;;;;15.23;5.18;;;3.20;99.90;;;;;;5076350;28;20040;-72
2022/01/07 01:49:10;;;;;;;14.63;5.47;;;3.20;99.90;;;;;;5093464;28;20411;-72
2022/01/07 01:51:36;;;;;;;18.33;5.50;;;3.20;99.90;;;;;;5094038;28;20027;-72
2022/01/07 01:54:03;;;;;;;16.52;5.20;;;3.20;99.90;;;;;;5093674;28;20024;-72
2022/01/07 01:56:29;;;;;;;15.18;5.50;;;3.20;99.90;;;;;;5093565;28;20465;-72
2022/01/07 01:58:54;;;;;;;13.05;5.20;;;3.30;99.90;;;;;;5093229;28;20085;-72
2022/01/07 02:01:20;;;;;;;12.02;5.18;;;3.30;99.90;;;;;;5094460;28;20469;-73
2022/01/07 02:03:46;;;;;;;13.98;4.50;;;3.40;99.90;;;;;;5076255;28;20024;-72
2022/01/07 02:06:11;;;;;;;13.85;4.45;;;3.40;99.90;;;;;;5093040;28;20469;-72
2022/01/07 02:08:37;;;;;;;13.60;4.97;;;3.40;99.90;;;;;;5093770;28;20099;-72
2022/01/07 02:11:04;;;;;;;18.23;4.80;;;3.40;99.90;;;;;;5093469;28;20020;-72
2022/01/07 02:13:29;;;;;;;11.82;4.40;;;3.40;99.90;;;;;;5092978;28;20016;-73
2022/01/07 02:15:55;;;;;;;11.05;4.32;;;3.40;99.90;;;;;;5092915;28;20042;-72
2022/01/07 02:18:21;;;;;;;14.25;4.95;;;3.40;99.90;;;;;;5094389;28;20036;-72
2022/01/07 02:20:47;;;;;;;11.82;4.55;;;3.40;99.90;;;;;;5093261;28;20027;-72
2022/01/07 02:23:13;;;;;;;13.15;5.07;;;3.50;99.90;;;;;;5094653;28;20019;-72
2022/01/07 02:25:39;;;;;;;12.93;4.90;;;3.50;99.90;;;;;;5093187;28;20066;-72
2022/01/07 02:28:05;;;;;;;13.07;4.78;;;3.50;99.90;;;;;;5093108;28;20044;-73
2022/01/07 02:30:31;;;;;;;10.05;5.00;;;3.50;99.90;;;;;;5094245;28;20051;-73
2022/01/07 02:32:57;;;;;;;10.10;5.07;;;3.50;99.90;;;;;;5093031;28;20465;-72
2022/01/07 02:35:27;;;;;;;14.00;4.82;;;3.50;99.90;;;;;;5094421;28;20482;-72
2022/01/07 02:37:54;;;;;;;14.35;4.93;;;3.50;99.90;;;;;;5094160;28;20054;-72
2022/01/07 02:40:19;;;;;;;18.80;5.70;;;3.50;99.90;;;;;;5075752;28;20069;-72
2022/01/07 02:42:45;;;;;;;14.32;4.82;;;3.60;99.90;;;;;;5093185;28;20050;-72
2022/01/07 02:45:13;;;;;;;13.05;5.85;;;3.60;99.90;;;;;;5092778;28;20478;-73
2022/01/07 02:47:57;;;;;;;11.18;4.68;;;3.50;99.90;;;;;;5094250;28;20065;-72
2022/01/07 02:50:30;;;;;;;16.38;5.63;;;3.50;99.90;;;;;;5093023;28;20024;-72
2022/01/07 02:52:57;;;;;;;13.13;5.65;;;3.60;99.90;;;;;;5092868;28;20031;-72
2022/01/07 02:55:23;;;;;;;15.85;6.75;;;3.60;99.90;;;;;;5094223;28;20012;-72
2022/01/07 02:57:49;;;;;;;17.30;5.68;;;3.60;99.90;;;;;;5093052;28;20020;-72
2022/01/07 03:00:17;;;;;;;11.95;5.32;;;3.60;99.90;;;;;;5092725;28;20032;-72
2022/01/07 03:02:44;;;;;;;11.05;5.97;;;3.60;99.90;;;;;;5075834;28;20077;-72
2022/01/07 03:05:10;;;;;;;14.52;6.25;;;3.60;99.90;;;;;;5094124;28;20020;-72
2022/01/07 03:07:37;;;;;;;10.93;5.70;;;3.60;99.90;;;;;;5075407;28;20115;-71
2022/01/07 03:10:04;;;;;;;13.57;6.13;;;3.60;99.90;;;;;;5092513;28;20020;-72
2022/01/07 03:12:29;;;;;;;16.70;6.55;;;3.60;99.90;;;;;;5093068;28;20031;-73
2022/01/07 03:14:56;;;;;;;12.63;6.80;;;3.60;99.90;;;;;;5092586;28;20028;-73
2022/01/07 03:17:21;;;;;;;19.70;6.38;;;3.60;99.90;;;;;;5094007;28;20024;-72
2022/01/07 03:19:47;;;;;;;14.48;6.25;;;3.50;99.90;;;;;;5093460;28;20047;-72
2022/01/07 03:22:13;;;;;;;17.92;6.07;;;3.50;99.90;;;;;;5092528;28;20392;-73
2022/01/07 03:24:38;;;;;;;19.15;6.50;;;3.40;99.90;;;;;;5093403;28;20038;-74
2022/01/07 03:27:05;;;;;;;17.38;6.80;;;3.40;99.90;;;;;;5093556;28;20028;-73
2022/01/07 03:29:30;;;;;;;15.95;6.72;;;3.40;99.90;;;;;;5076187;28;20016;-74
2022/01/07 03:31:56;;;;;;;12.60;6.00;;;3.30;99.90;;;;;;5092734;28;20373;-73
2022/01/07 03:34:21;;;;;;;17.88;6.38;;;3.20;99.90;;;;;;5092687;28;20024;-73
2022/01/07 03:36:47;;;;;;;16.25;6.45;;;3.30;99.90;;;;;;5075232;28;20047;-73
2022/01/07 03:39:12;;;;;;;16.83;6.47;;;3.20;99.90;;;;;;5092657;28;20043;-73
2022/01/07 03:41:38;;;;;;;16.77;6.90;;;3.20;99.90;;;;;;5075978;28;20073;-74
2022/01/07 03:44:04;;;;;;;11.90;6.22;;;3.20;99.90;;;;;;5091961;28;20024;-74
2022/01/07 03:46:29;;;;;;;16.95;6.43;;;3.20;99.90;;;;;;5095283;28;20492;-74
2022/01/07 03:48:55;;;;;;;17.33;6.45;;;3.20;99.90;;;;;;5079680;28;20043;-73
2022/01/07 03:51:20;;;;;;;16.83;6.88;;;3.10;99.90;;;;;;5096389;28;20095;-73
2022/01/07 03:53:46;;;;;;;19.48;6.45;;;3.20;99.90;;;;;;5095703;28;20376;-73
2022/01/07 03:56:17;;;;;;;18.05;6.65;;;3.10;99.90;;;;;;5078701;28;20024;-73
2022/01/07 03:58:43;;;;;;;17.65;6.95;;;3.10;99.90;;;;;;5095566;28;20028;-73
2022/01/07 04:01:09;;;;;;;14.43;6.05;;;3.10;99.90;;;;;;5095636;28;20039;-73
2022/01/07 04:03:35;;;;;;;15.20;6.40;;;3.20;99.90;;;;;;5095461;28;20020;-73
2022/01/07 04:06:00;;;;;;;18.80;6.80;;;3.10;99.90;;;;;;5095762;28;20047;-74
2022/01/07 04:08:26;;;;;;;17.13;6.80;;;3.10;99.90;;;;;;5095758;28;20024;-73
2022/01/07 04:10:51;;;;;;;15.52;6.65;;;3.10;99.90;;;;;;5096863;28;20157;-73
2022/01/07 04:13:17;;;;;;;14.80;6.97;;;3.10;99.90;;;;;;5096849;28;20073;-73
2022/01/07 04:15:42;;;;;;;15.65;6.60;;;3.10;99.90;;;;;;5078328;28;20028;-73
2022/01/07 04:18:08;;;;;;;15.18;7.10;;;3.10;99.90;;;;;;5095543;28;20103;-72
2022/01/07 04:20:35;;;;;;;17.85;7.03;;;3.10;99.90;;;;;;5095526;28;20418;-73
2022/01/07 04:23:01;;;;;;;17.17;7.10;;;3.10;99.90;;;;;;5096937;28;20028;-73
2022/01/07 04:25:27;;;;;;;13.23;6.88;;;3.10;99.90;;;;;;5096879;28;20465;-73
2022/01/07 04:27:57;;;;;;;14.25;7.43;;;3.00;99.90;;;;;;5096766;28;20062;-73
2022/01/07 04:30:24;;;;;;;19.30;7.75;;;3.00;99.90;;;;;;5095082;28;20086;-73
2022/01/07 04:32:52;;;;;;;18.15;7.07;;;2.90;99.90;;;;;;5096466;28;20012;-73
2022/01/07 04:35:18;;;;;;;15.23;7.68;;;2.90;99.90;;;;;;5096699;28;20472;-73
2022/01/07 04:37:44;;;;;;;19.20;8.15;;;2.80;99.90;;;;;;5095198;28;20036;-73
2022/01/07 04:40:13;;;;;;;18.83;7.75;;;2.80;99.90;;;;;;5096247;28;20385;-73
2022/01/07 04:42:38;;;;;;;17.55;8.15;;;2.70;99.90;;;;;;5078483;28;20030;-73
2022/01/07 04:45:06;;;;;;;18.48;7.53;;;2.60;99.90;;;;;;5094487;28;20149;-73
2022/01/07 04:47:32;;;;;;;24.63;8.40;;;2.50;99.90;;;;;;5096385;28;20028;-73
2022/01/07 04:49:58;;;;;;;17.17;8.48;;;2.50;99.90;;;;;;5094711;28;20141;-73
2022/01/07 04:52:24;;;;;;;21.52;8.30;;;2.50;99.90;;;;;;5077749;28;20115;-73
2022/01/07 04:54:49;;;;;;;22.15;8.98;;;2.50;99.90;;;;;;5095769;28;20062;-72
2022/01/07 04:57:15;;;;;;;17.70;8.90;;;2.50;99.90;;;;;;5094686;28;20129;-73
2022/01/07 04:59:41;;;;;;;20.50;8.88;;;2.50;99.90;;;;;;5096229;28;20094;-73
2022/01/07 05:02:06;;;;;;;21.45;8.40;;;2.40;99.90;;;;;;5094372;28;20393;-73
2022/01/07 05:04:32;;;;;;;22.33;8.90;;;2.40;99.90;;;;;;5094258;28;20393;-73
2022/01/07 05:06:57;;;;;;;26.75;9.52;;;2.50;99.90;;;;;;5094221;28;20023;-73
2022/01/07 05:09:23;;;;;;;17.35;8.05;;;2.50;99.90;;;;;;5094227;28;20503;-73
2022/01/07 05:11:51;;;;;;;17.70;8.07;;;2.50;99.90;;;;;;5077352;28;20532;-73
2022/01/07 05:14:17;;;;;;;24.55;8.73;;;2.50;99.90;;;;;;5094688;28;20024;-73
2022/01/07 05:16:43;;;;;;;19.42;8.48;;;2.50;99.90;;;;;;5094101;28;20020;-73
2022/01/07 05:19:09;;;;;;;14.85;7.53;;;2.60;99.90;;;;;;5095857;28;20484;-73
2022/01/07 05:21:35;;;;;;;18.50;8.15;;;2.60;99.90;;;;;;5095261;28;20042;-73
2022/01/07 05:24:01;;;;;;;17.50;8.05;;;2.60;99.90;;;;;;5095213;28;20036;-74
2022/01/07 05:26:27;;;;;;;21.67;8.23;;;2.60;99.90;;;;;;5095326;28;20028;-73
2022/01/07 05:28:53;;;;;;;16.70;8.20;;;2.70;99.90;;;;;;5095633;28;20028;-73
2022/01/07 05:31:22;;;;;;;22.48;8.27;;;2.70;99.90;;;;;;5095334;28;20039;-72
2022/01/07 05:33:49;;;;;;;19.98;7.75;;;2.70;99.90;;;;;;5095038;28;20023;-72
2022/01/07 05:36:14;;;;;;;18.02;7.60;;;2.70;99.90;;;;;;5095517;28;20043;-72
2022/01/07 05:38:40;;;;;;;18.50;7.20;;;2.70;99.90;;;;;;5095466;28;20365;-73
2022/01/07 05:41:05;;;;;;;19.33;7.30;;;2.80;99.90;;;;;;5093986;28;20028;-72
2022/01/07 05:43:31;;;;;;;15.52;6.57;;;2.80;99.90;;;;;;5095136;28;20388;-73
2022/01/07 05:45:57;;;;;;;13.35;7.18;;;2.80;99.90;;;;;;5094673;28;20036;-73
2022/01/07 05:48:23;;;;;;;13.02;6.93;;;2.80;99.90;;;;;;5094127;28;20035;-72
2022/01/07 05:50:48;;;;;;;15.27;6.00;;;2.90;99.90;;;;;;5076531;28;20427;-73
2022/01/07 05:53:14;;;;;;;9.90;5.97;;;2.90;99.90;;;;;;5093497;28;20027;-73
2022/01/07 05:55:40;;;;;;;10.85;5.07;;;2.90;99.90;;;;;;5094920;28;20020;-73
2022/01/07 05:58:05;;;;;;;10.05;5.72;;;3.00;99.90;;;;;;5093949;28;20133;-74
2022/01/07 06:00:31;;;;;;;14.98;6.20;;;3.00;99.90;;;;;;5095068;28;20469;-73
2022/01/07 06:02:56;;;;;;;13.23;5.47;;;3.00;99.90;;;;;;5095029;28;20064;-73
2022/01/07 06:05:22;;;;;;;11.18;4.80;;;3.00;99.90;;;;;;5094960;28;20035;-73
2022/01/07 06:07:47;;;;;;;18.50;5.68;;;3.10;99.90;;;;;;5094078;28;20028;-73
2022/01/07 06:10:13;;;;;;;12.32;5.13;;;3.00;99.90;;;;;;5094268;28;20426;-73
2022/01/07 06:12:39;;;;;;;12.02;5.00;;;3.10;99.90;;;;;;5094304;28;20073;-73
2022/01/07 06:15:05;;;;;;;11.93;5.15;;;3.10;99.90;;;;;;5092950;28;20024;-73
2022/01/07 06:17:31;;;;;;;13.13;5.40;;;3.20;99.90;;;;;;5094771;28;20024;-73
2022/01/07 06:19:57;;;;;;;18.23;8.18;;;3.20;99.90;;;;;;5094137;28;20031;-73
2022/01/07 06:22:22;;;;;;;13.23;5.25;;;3.20;99.90;;;;;;5094138;28;20038;-73
2022/01/07 06:24:47;;;;;;;12.50;4.38;;;3.30;99.90;;;;;;5092831;28;20024;-73
2022/01/07 06:27:13;;;;;;;11.50;5.13;;;3.30;99.90;;;;;;5075818;28;20028;-73
2022/01/07 06:29:39;;;;;;;9.52;5.13;;;3.30;99.90;;;;;;5093542;28;20016;-73
2022/01/07 06:32:06;;;;;;;14.10;5.47;;;3.30;99.90;;;;;;5094507;28;20031;-73
2022/01/07 06:34:31;;;;;;;14.23;5.45;;;3.30;99.90;;;;;;5076623;28;20024;-73
2022/01/07 06:36:59;;;;;;;12.55;5.68;;;3.30;99.90;;;;;;5093208;28;20457;-73
2022/01/07 06:39:24;;;;;;;15.10;5.22;;;3.30;99.90;;;;;;5094121;28;20032;-73
2022/01/07 06:41:51;;;;;;;18.05;8.23;;;3.30;99.90;;;;;;5094368;28;20031;-73
2022/01/07 06:44:18;;;;;;;11.32;5.50;;;3.30;99.90;;;;;;5093148;28;20093;-73
2022/01/07 06:46:44;;;;;;;9.68;5.50;;;3.30;99.90;;;;;;5092365;28;20040;-73
2022/01/07 06:49:09;;;;;;;16.58;5.97;;;3.30;99.90;;;;;;5093011;28;20136;-73
2022/01/07 06:51:35;;;;;;;12.25;6.22;;;3.30;99.90;;;;;;5094202;28;20056;-73
2022/01/07 06:54:01;;;;;;;8.20;5.15;;;3.30;99.90;;;;;;5092861;28;20062;-73
2022/01/07 06:56:27;;;;;;;14.60;5.55;;;3.20;99.90;;;;;;5092336;28;20119;-73
2022/01/07 06:58:53;;;;;;;19.85;5.90;;;3.20;99.90;;;;;;5092485;28;20440;-73
2022/01/07 07:01:20;;;;;;;15.48;5.63;;;3.10;99.90;;;;;;5092983;28;20055;-73
2022/01/07 07:03:46;;;;;;;11.93;5.75;;;3.10;99.90;;;;;;5092619;28;20111;-73
2022/01/07 07:06:12;;;;;;;9.93;5.50;;;3.00;99.90;;;;;;5092552;28;20027;-73
2022/01/07 07:08:38;;;;;;;10.32;6.00;;;3.00;99.90;;;;;;5092303;28;20016;-73
2022/01/07 07:11:03;;;;;;;14.70;6.38;;;2.90;99.90;;;;;;5093719;28;20353;-74
2022/01/07 07:13:29;;;;;;;16.50;7.03;;;2.90;99.90;;;;;;5075405;28;20166;-74
2022/01/07 07:15:55;;;;;;;13.27;5.97;;;2.90;99.90;;;;;;5092256;28;20028;-74
2022/01/07 07:18:20;;;;;;;18.73;6.60;;;2.90;99.90;;;;;;5075513;28;20024;-74
2022/01/07 07:20:46;;;;;;;13.70;7.03;;;2.90;99.90;;;;;;5079701;28;20028;-74
2022/01/07 07:23:11;;;;;;;16.17;6.22;;;2.90;99.90;;;;;;5079357;28;20028;-74
2022/01/07 07:25:37;;;;;;;10.48;5.47;;;2.90;99.90;;;;;;5079351;28;20020;-73
2022/01/07 07:28:02;;;;;;;15.20;6.28;;;2.90;99.90;;;;;;5096670;28;20027;-73
2022/01/07 07:30:35;;;;;;;11.07;5.68;;;3.00;99.90;;;;;;5097616;28;20024;-73
2022/01/07 07:33:28;;;;;;;18.88;6.38;;;3.00;99.90;;;;;;5097888;28;20047;-73
2022/01/07 07:38:24;;;;;;;14.07;5.90;;;3.00;99.90;;;;;;5112182;27;20288;-74
2022/01/07 07:40:49;;;;;;;10.90;5.53;;;3.00;99.90;;;;;;5099502;28;20026;-74
2022/01/07 07:43:15;;;;;;;14.70;6.55;;;3.10;99.90;;;;;;5096397;28;20024;-74
2022/01/07 07:45:40;;;;;;;12.05;5.90;;;3.10;99.90;;;;;;5103487;28;20024;-74
2022/01/07 07:48:06;;;;;;;10.18;5.72;;;3.10;99.90;;;;;;5108199;28;20127;-73
2022/01/07 07:50:32;;;;;;;9.65;5.90;;;3.10;99.90;;;;;;5091255;28;20063;-74
2022/01/07 07:52:57;;;;;;;10.70;6.18;;;3.10;99.90;;;;;;5098514;28;20428;-74
2022/01/07 07:55:23;;;;;;;12.40;5.50;;;3.10;99.90;;;;;;5109551;28;20111;-74
2022/01/07 07:57:48;;;;;;;13.20;5.75;;;3.10;99.90;;;;;;5102271;28;20034;-74
2022/01/07 08:00:14;;;;;;;11.60;6.00;;;3.10;99.90;;;;;;5116687;28;20490;-74
2022/01/07 08:02:40;;;;;;;11.35;6.25;;;3.10;99.90;;;;;;5113067;28;20062;-74
2022/01/07 08:05:06;;;;;;;12.55;7.28;;;3.20;99.90;;;;;;5102524;28;20131;-74
2022/01/07 08:07:31;;;;;;;8.73;5.10;;;3.20;99.90;;;;;;5100357;28;20439;-74
2022/01/07 08:09:57;;;;;;;11.88;5.93;;;3.20;99.90;;;;;;5088691;28;20013;-73
2022/01/07 08:12:29;;;;;;;10.70;5.85;;;3.20;99.90;;;;;;5121809;28;20503;-74
2022/01/07 08:17:41;;;;;;;8.73;5.88;;;3.30;99.90;;;;;;5127746;27;20318;-74
2022/01/07 08:20:07;;;;;;;9.07;5.97;;;3.30;99.90;;;;;;5092067;28;20502;-74
2022/01/07 08:22:32;;;;;;;10.30;5.82;;;3.30;99.90;;;;;;5121306;28;20023;-74
2022/01/07 08:24:58;;;;;;;10.23;5.90;;;3.30;99.90;;;;;;5116922;28;20495;-74
2022/01/07 08:27:23;;;;;;;10.73;6.05;;;3.30;99.90;;;;;;5129371;28;20024;-74
2022/01/07 08:29:50;;;;;;;14.98;6.72;;;3.40;99.90;;;;;;5097008;28;20390;-74
2022/01/07 08:35:04;;;;;;;13.07;6.93;;;3.40;99.90;;;;;;5109203;28;20157;-74
2022/01/07 08:37:30;;;;;;;10.15;6.40;;;3.40;99.90;;;;;;5107399;28;20104;-74
2022/01/07 08:39:56;;;;;;;10.63;6.70;;;3.40;99.90;;;;;;5109781;28;20023;-74
2022/01/07 08:42:24;;;;;;;12.07;6.80;;;3.50;99.90;;;;;;5105057;28;20504;-74
2022/01/07 08:44:52;;;;;;;10.82;6.88;;;3.50;99.90;;;;;;5092904;28;20024;-75
2022/01/07 08:47:19;;;;;;;12.23;7.00;;;3.50;99.90;;;;;;5107108;28;20177;-74
2022/01/07 08:49:46;;;;;;;18.05;7.07;;;3.60;99.90;;;;;;5094656;28;20063;-74
2022/01/07 08:52:13;;;;;;;11.93;6.88;;;3.50;99.90;;;;;;5092339;28;20024;-74
2022/01/07 08:54:38;;;;;;;16.65;7.93;;;3.60;99.90;;;;;;5073389;28;20389;-73
2022/01/07 08:57:04;;;;;;;13.63;8.30;;;3.60;99.90;;;;;;5077195;28;20070;-74
2022/01/07 08:59:29;;;;;;;14.35;8.35;;;3.70;99.90;;;;;;5079388;28;20107;-74
2022/01/07 09:01:55;;;;;;;15.05;7.72;;;3.70;99.90;;;;;;5098794;28;20041;-74
2022/01/07 09:04:20;;;;;;;13.10;8.05;;;3.70;99.90;;;;;;5076154;28;20025;-73
2022/01/07 09:06:46;;;;;;;23.55;12.02;;;3.70;99.90;;;;;;5086305;28;20102;-74
2022/01/07 09:09:11;;;;;;;15.00;8.23;;;3.80;99.90;;;;;;5091592;28;20040;-73
2022/01/07 09:11:37;;;;;;;14.85;8.00;;;3.80;99.90;;;;;;5084233;28;20039;-74
2022/01/07 09:14:03;;;;;;;35.08;18.42;;;3.80;99.90;;;;;;5094294;28;20092;-74
2022/01/07 09:16:28;;;;;;;13.48;7.43;;;3.80;99.90;;;;;;5093738;28;20443;-74
2022/01/07 09:18:54;;;;;;;10.25;7.53;;;3.80;99.90;;;;;;5089739;28;20492;-74
2022/01/07 09:21:19;;;;;;;16.13;8.27;;;3.80;99.90;;;;;;5081734;28;20500;-74
2022/01/07 09:23:45;;;;;;;18.50;9.15;;;3.90;99.90;;;;;;5096050;28;20032;-74
2022/01/07 09:26:12;;;;;;;17.33;9.55;;;3.80;99.90;;;;;;5090243;28;20063;-73
2022/01/07 09:28:38;;;;;;;21.00;9.98;;;3.90;99.90;;;;;;5092065;28;20020;-74
2022/01/07 09:31:03;;;;;;;10.95;7.53;;;3.90;99.90;;;;;;5095275;28;20020;-74
2022/01/07 09:33:29;;;;;;;14.25;8.18;;;3.90;99.90;;;;;;5090041;28;20030;-74
2022/01/07 09:35:55;;;;;;;13.23;7.60;;;3.90;99.90;;;;;;5087758;28;20485;-74
2022/01/07 09:38:21;;;;;;;13.05;8.02;;;4.00;99.90;;;;;;5100488;28;20041;-74
2022/01/07 09:40:50;;;;;;;9.93;7.68;;;4.00;99.90;;;;;;5094297;28;20095;-74
2022/01/07 09:43:15;;;;;;;13.23;7.97;;;4.00;99.90;;;;;;5091220;28;20033;-74
2022/01/07 09:45:41;;;;;;;15.73;8.85;;;4.00;99.90;;;;;;5090819;28;20353;-74
2022/01/07 09:48:08;;;;;;;16.10;7.93;;;4.00;99.90;;;;;;5075103;28;20432;-74
2022/01/07 09:50:35;;;;;;;12.07;7.85;;;4.00;99.90;;;;;;5088696;28;20080;-74
2022/01/07 09:53:12;;;;;;;13.82;7.70;;;4.10;99.90;;;;;;5085071;28;20036;-74
2022/01/07 09:55:38;;;;;;;17.20;8.48;;;4.10;99.90;;;;;;5091566;28;20079;-74
2022/01/07 09:58:04;;;;;;;11.05;8.20;;;4.10;99.90;;;;;;5074827;28;20029;-73
2022/01/07 10:00:37;;;;;;;13.13;8.15;;;4.10;99.90;;;;;;5081496;28;20036;-74
2022/01/07 10:03:05;;;;;;;12.43;9.02;;;4.20;99.90;;;;;;5089674;28;20021;-74
2022/01/07 10:05:31;;;;;;;19.95;9.05;;;4.20;99.90;;;;;;5094705;28;20020;-73
2022/01/07 10:08:16;;;;;;;13.82;9.50;;;4.20;99.90;;;;;;5094581;28;20032;-74
2022/01/07 10:10:42;;;;;;;34.28;20.60;;;4.20;99.90;;;;;;5079018;28;20390;-73
2022/01/07 10:13:07;;;;;;;17.90;9.48;;;4.20;99.90;;;;;;5078450;28;20029;-74
2022/01/07 10:15:35;;;;;;;21.42;11.68;;;4.20;99.90;;;;;;5071054;28;20031;-74
2022/01/07 10:18:04;;;;;;;13.82;8.68;;;4.20;99.90;;;;;;5072195;28;20028;-74
2022/01/07 10:20:37;;;;;;;13.10;8.90;;;4.20;99.90;;;;;;5073881;28;20072;-74
2022/01/07 10:25:44;;;;;;;11.35;8.93;;;4.20;99.90;;;;;;5062432;28;20443;-74
2022/01/07 10:28:12;;;;;;;10.85;7.68;;;4.30;99.90;;;;;;5046221;28;20025;-73
2022/01/07 10:30:48;;;;;;;14.80;8.10;;;4.30;99.90;;;;;;5053177;28;20028;-73
2022/01/07 10:33:20;;;;;;;13.65;8.35;;;4.40;99.90;;;;;;5039322;28;20063;-73
2022/01/07 10:35:48;;;;;;;11.68;8.18;;;4.40;99.90;;;;;;5061924;28;20552;-73
2022/01/07 10:38:20;;;;;;;13.32;8.15;;;4.40;99.90;;;;;;5068644;28;20033;-73
2022/01/07 10:40:47;;;;;;;11.77;7.78;;;4.40;99.90;;;;;;5059960;28;20037;-73
2022/01/07 10:43:17;;;;;;;17.42;9.40;;;4.40;99.90;;;;;;5047105;28;20482;-73
2022/01/07 10:45:48;;;;;;;12.95;8.10;;;4.40;99.90;;;;;;5051548;28;20040;-74
2022/01/07 10:48:14;;;;;;;17.77;8.50;;;4.40;99.90;;;;;;5052206;28;20412;-73
2022/01/07 10:50:44;;;;;;;14.73;8.65;;;4.40;99.90;;;;;;5066414;28;20012;-73
2022/01/07 10:53:20;;;;;;;13.48;8.55;;;4.50;99.90;;;;;;5067774;28;20025;-73
2022/01/07 10:56:08;;;;;;;13.32;8.73;;;4.50;99.90;;;;;;5069049;28;20032;-73
2022/01/07 10:58:50;;;;;;;14.85;8.05;;;4.50;99.90;;;;;;5056000;28;20068;-74
2022/01/07 11:03:59;;;;;;;13.80;8.65;;;4.50;99.90;;;;;;5099157;27;20772;-74
2022/01/07 11:06:26;;;;;;;15.35;8.73;;;4.50;99.90;;;;;;5105370;28;20024;-73
2022/01/07 11:08:53;;;;;;;13.73;8.00;;;4.50;99.90;;;;;;5092016;28;20384;-74
2022/01/07 11:11:21;;;;;;;11.07;7.38;;;4.50;99.90;;;;;;5108006;28;20091;-73
2022/01/07 11:13:46;;;;;;;13.27;8.30;;;4.40;99.90;;;;;;5110633;28;20500;-73
2022/01/07 11:16:13;;;;;;;13.50;7.95;;;4.50;99.90;;;;;;5072682;28;20039;-73
2022/01/07 11:18:40;;;;;;;9.82;7.30;;;4.40;99.90;;;;;;5092239;28;20038;-73
2022/01/07 11:21:07;;;;;;;11.73;7.93;;;4.40;99.90;;;;;;5112264;28;20445;-73
2022/01/07 11:23:37;;;;;;;11.57;7.18;;;4.40;99.90;;;;;;5109278;28;20047;-73
2022/01/07 11:26:05;;;;;;;14.30;8.00;;;4.40;99.90;;;;;;5111217;28;20570;-73
2022/01/07 11:28:31;;;;;;;10.68;7.22;;;4.50;99.90;;;;;;5104284;28;20024;-73
2022/01/07 11:31:14;;;;;;;15.52;7.72;;;4.40;99.90;;;;;;5091732;28;20047;-73
2022/01/07 11:33:40;;;;;;;16.20;8.00;;;4.50;99.90;;;;;;5088755;28;20065;-74
2022/01/07 11:36:11;;;;;;;12.95;6.85;;;4.50;99.90;;;;;;5088981;28;20025;-73
2022/01/07 11:38:40;;;;;;;11.75;8.23;;;4.60;99.90;;;;;;5100563;28;20024;-73
2022/01/07 11:41:09;;;;;;;12.20;7.28;;;4.60;99.90;;;;;;5097811;28;20025;-73
2022/01/07 11:43:39;;;;;;;11.73;7.07;;;4.60;99.90;;;;;;5101416;28;20024;-73
2022/01/07 11:46:24;;;;;;;9.95;7.10;;;4.70;99.90;;;;;;5101978;28;20354;-73
2022/01/07 11:48:50;;;;;;;12.60;7.57;;;4.70;99.90;;;;;;5107939;28;20031;-73
2022/01/07 11:51:17;;;;;;;13.00;7.55;;;4.70;99.90;;;;;;5107888;28;20027;-74
2022/01/07 11:56:23;;;;;;;11.27;7.38;;;4.80;99.90;;;;;;5077464;28;20133;-74
2022/01/07 11:58:52;;;;;;;12.55;7.25;;;4.90;99.90;;;;;;5075527;28;20023;-74
2022/01/07 12:01:35;;;;;;;14.38;6.90;;;4.90;99.90;;;;;;5080841;28;20024;-74
2022/01/07 12:04:03;;;;;;;;;;;5.00;99.90;;;;;;5062140;28;20021;-74
2022/01/07 12:06:45;;;;;;;14.23;6.72;;;4.90;99.90;;;;;;5066541;28;19963;-74
2022/01/07 12:09:22;;;;;;;10.70;7.00;;;4.90;99.90;;;;;;5068711;28;20037;-74
2022/01/07 12:11:58;;;;;;;14.50;8.13;;;5.00;99.90;;;;;;5080044;28;20024;-74
2022/01/07 12:14:27;;;;;;;12.68;6.75;;;5.00;99.90;;;;;;5066933;28;20477;-74
2022/01/07 12:16:56;;;;;;;9.90;6.30;;;5.00;99.90;;;;;;5046305;28;20035;-74
2022/01/07 12:21:59;;;;;;;16.02;8.32;;;5.00;99.90;;;;;;5111112;27;20325;-73
2022/01/07 12:24:27;;;;;;;12.82;7.53;;;5.00;99.90;;;;;;5073613;28;20028;-73
2022/01/07 12:27:11;;;;;;;11.13;6.93;;;5.00;99.90;;;;;;5064029;28;20470;-74
2022/01/07 12:29:39;;;;;;;17.15;8.20;;;5.00;99.90;;;;;;5060185;28;20025;-73
2022/01/07 12:32:06;;;;;;;16.50;9.10;;;5.10;99.90;;;;;;5088281;28;20503;-73
2022/01/07 12:34:40;;;;;;;13.77;6.82;;;5.00;99.90;;;;;;5072673;28;20035;-73
2022/01/07 12:37:08;;;;;;;16.67;7.60;;;5.00;99.90;;;;;;5088547;28;20442;-73
2022/01/07 12:39:37;;;;;;;14.60;7.03;;;5.00;99.90;;;;;;5088647;28;20028;-72
2022/01/07 12:42:03;;;;;;;12.32;6.68;;;5.00;99.90;;;;;;5069400;28;20084;-73
2022/01/07 12:44:53;;;;;;;11.48;7.13;;;5.10;99.90;;;;;;5088534;28;20025;-74
2022/01/07 12:47:20;;;;;;;12.82;7.20;;;5.20;99.90;;;;;;5091032;28;20032;-66
2022/01/07 12:49:53;;;;;;;11.95;7.22;;;5.20;99.90;;;;;;5064958;28;20060;-66
2022/01/07 12:52:24;;;;;;;11.23;6.85;;;5.20;99.90;;;;;;5050810;28;20029;-66
2022/01/07 12:55:02;;;;;;;10.00;6.20;;;5.10;99.90;;;;;;5064261;28;20395;-66
2022/01/07 12:57:36;;;;;;;10.40;6.88;;;5.10;99.90;;;;;;5090691;28;20358;-66
2022/01/07 13:00:06;;;;;;;11.23;7.22;;;5.10;99.90;;;;;;5083971;28;20052;-66
2022/01/07 13:02:32;;;;;;;13.40;7.15;;;5.10;99.90;;;;;;5070834;28;20021;-67
2022/01/07 13:05:18;;;;;;;11.27;7.50;;;5.10;99.90;;;;;;5065727;28;20017;-67
2022/01/07 13:07:46;;;;;;;11.13;6.90;;;5.10;99.90;;;;;;5065344;28;20021;-67